sensor_id;sensor_type;location;lat;lon;timestamp;pressure;altitude;pressure_sealevel;temperature;humidity
6090;BME280;3073;42.660;23.316;2023-06-10T00:00:08;94154.84;;;25.40;100.00
6090;BME280;3073;42.660;23.316;2023-06-10T00:02:38;94152.06;;;25.33;100.00
6090;BME280;3073;42.660;23.316;2023-06-10T00:05:08;94143.72;;;25.43;100.00
6090;BME280;3073;42.660;23.316;2023-06-10T00:07:35;94159.13;;;25.17;100.00
6090;BME280;3073;42.660;23.316;2023-06-10T00:10:04;94159.44;;;24.99;100.00
6090;BME280;3073;42.660;23.316;2023-06-10T00:12:31;94153.22;;;25.20;100.00
6090;BME280;3073;42.660;23.316;2023-06-10T00:15:02;94157.78;;;25.23;100.00
6090;BME280;3073;42.660;23.316;2023-06-10T00:17:30;94156.50;;;25.17;100.00
6090;BME280;3073;42.660;23.316;2023-06-10T00:19:56;94154.06;;;25.24;100.00
6090;BME280;3073;42.660;23.316;2023-06-10T00:22:26;94165.44;;;24.60;100.00
6090;BME280;3073;42.660;23.316;2023-06-10T00:24:54;94161.56;;;24.54;100.00
6090;BME280;3073;42.660;23.316;2023-06-10T00:27:21;94159.16;;;24.61;100.00
6090;BME280;3073;42.660;23.316;2023-06-10T00:29:48;94163.50;;;24.57;100.00
6090;BME280;3073;42.660;23.316;2023-06-10T00:32:15;94157.84;;;23.79;100.00
6090;BME280;3073;42.660;23.316;2023-06-10T00:34:43;94162.53;;;23.97;100.00
6090;BME280;3073;42.660;23.316;2023-06-10T00:37:10;94161.09;;;24.64;100.00
6090;BME280;3073;42.660;23.316;2023-06-10T00:39:38;94149.72;;;24.84;100.00
6090;BME280;3073;42.660;23.316;2023-06-10T00:42:06;94159.56;;;23.99;100.00
6090;BME280;3073;42.660;23.316;2023-06-10T00:44:36;94158.78;;;24.35;100.00
6090;BME280;3073;42.660;23.316;2023-06-10T00:47:03;94151.44;;;24.25;100.00
6090;BME280;3073;42.660;23.316;2023-06-10T00:49:30;94157.28;;;24.62;100.00
6090;BME280;3073;42.660;23.316;2023-06-10T00:51:57;94148.38;;;24.90;100.00
6090;BME280;3073;42.660;23.316;2023-06-10T00:54:24;94158.72;;;24.87;100.00
6090;BME280;3073;42.660;23.316;2023-06-10T00:56:55;94149.97;;;24.67;100.00
6090;BME280;3073;42.660;23.316;2023-06-10T00:59:23;94153.63;;;24.78;100.00
6090;BME280;3073;42.660;23.316;2023-06-10T01:01:50;94156.19;;;24.35;100.00
6090;BME280;3073;42.660;23.316;2023-06-10T01:04:18;94152.38;;;23.23;100.00
6090;BME280;3073;42.660;23.316;2023-06-10T01:06:52;94154.84;;;23.20;100.00
6090;BME280;3073;42.660;23.316;2023-06-10T01:09:32;94161.53;;;23.90;100.00
6090;BME280;3073;42.660;23.316;2023-06-10T01:12:05;94159.25;;;24.25;100.00
6090;BME280;3073;42.660;23.316;2023-06-10T01:14:36;94164.00;;;24.35;100.00
6090;BME280;3073;42.660;23.316;2023-06-10T01:17:04;94172.72;;;23.90;100.00
6090;BME280;3073;42.660;23.316;2023-06-10T01:19:32;94171.03;;;24.46;100.00
6090;BME280;3073;42.660;23.316;2023-06-10T01:22:03;94170.47;;;24.81;100.00
6090;BME280;3073;42.660;23.316;2023-06-10T01:24:31;94168.19;;;24.79;100.00
6090;BME280;3073;42.660;23.316;2023-06-10T01:27:05;94166.34;;;24.80;100.00
6090;BME280;3073;42.660;23.316;2023-06-10T01:29:37;94163.25;;;24.62;100.00
6090;BME280;3073;42.660;23.316;2023-06-10T01:32:13;94164.38;;;24.89;100.00
6090;BME280;3073;42.660;23.316;2023-06-10T01:34:42;94167.06;;;24.92;100.00
6090;BME280;3073;42.660;23.316;2023-06-10T01:37:13;94162.81;;;25.00;100.00
6090;BME280;3073;42.660;23.316;2023-06-10T01:39:42;94165.53;;;25.19;100.00
6090;BME280;3073;42.660;23.316;2023-06-10T01:42:10;94157.88;;;25.26;100.00
6090;BME280;3073;42.660;23.316;2023-06-10T01:44:39;94164.25;;;24.97;100.00
6090;BME280;3073;42.660;23.316;2023-06-10T01:47:07;94163.69;;;25.35;100.00
6090;BME280;3073;42.660;23.316;2023-06-10T01:49:34;94161.59;;;25.41;100.00
6090;BME280;3073;42.660;23.316;2023-06-10T01:52:01;94158.53;;;25.23;100.00
6090;BME280;3073;42.660;23.316;2023-06-10T01:54:29;94154.47;;;25.10;100.00
6090;BME280;3073;42.660;23.316;2023-06-10T01:56:56;94153.13;;;25.00;100.00
6090;BME280;3073;42.660;23.316;2023-06-10T01:59:23;94151.88;;;24.82;100.00
6090;BME280;3073;42.660;23.316;2023-06-10T02:01:50;94147.22;;;25.03;100.00
6090;BME280;3073;42.660;23.316;2023-06-10T02:04:17;94142.50;;;25.09;100.00
6090;BME280;3073;42.660;23.316;2023-06-10T02:06:44;94141.63;;;24.09;100.00
6090;BME280;3073;42.660;23.316;2023-06-10T02:09:11;94144.06;;;24.15;100.00
6090;BME280;3073;42.660;23.316;2023-06-10T02:11:39;94139.06;;;23.73;100.00
6090;BME280;3073;42.660;23.316;2023-06-10T02:14:06;94132.72;;;24.35;100.00
6090;BME280;3073;42.660;23.316;2023-06-10T02:16:33;94134.72;;;23.65;100.00
6090;BME280;3073;42.660;23.316;2023-06-10T02:19:00;94127.53;;;23.26;100.00
6090;BME280;3073;42.660;23.316;2023-06-10T02:21:28;94133.28;;;24.56;100.00
6090;BME280;3073;42.660;23.316;2023-06-10T02:23:55;94123.84;;;24.51;100.00
6090;BME280;3073;42.660;23.316;2023-06-10T02:26:22;94129.38;;;25.05;100.00
6090;BME280;3073;42.660;23.316;2023-06-10T02:28:52;94120.44;;;25.06;100.00
6090;BME280;3073;42.660;23.316;2023-06-10T02:31:19;94120.72;;;25.17;100.00
6090;BME280;3073;42.660;23.316;2023-06-10T02:33:46;94113.13;;;25.59;100.00
6090;BME280;3073;42.660;23.316;2023-06-10T02:36:13;94113.56;;;25.61;100.00
6090;BME280;3073;42.660;23.316;2023-06-10T02:38:41;94122.75;;;25.71;100.00
6090;BME280;3073;42.660;23.316;2023-06-10T02:41:08;94113.63;;;25.80;100.00
6090;BME280;3073;42.660;23.316;2023-06-10T02:43:35;94111.69;;;25.77;100.00
6090;BME280;3073;42.660;23.316;2023-06-10T02:46:03;94112.59;;;25.85;100.00
6090;BME280;3073;42.660;23.316;2023-06-10T02:48:30;94114.03;;;25.82;100.00
6090;BME280;3073;42.660;23.316;2023-06-10T02:50:57;94112.59;;;25.85;100.00
6090;BME280;3073;42.660;23.316;2023-06-10T02:53:23;94107.56;;;25.29;100.00
6090;BME280;3073;42.660;23.316;2023-06-10T02:55:50;94103.34;;;25.56;100.00
6090;BME280;3073;42.660;23.316;2023-06-10T02:58:17;94110.94;;;25.30;100.00
6090;BME280;3073;42.660;23.316;2023-06-10T03:00:44;94107.22;;;25.78;100.00
6090;BME280;3073;42.660;23.316;2023-06-10T03:03:12;94103.56;;;25.82;100.00
6090;BME280;3073;42.660;23.316;2023-06-10T03:05:39;94099.06;;;25.64;100.00
6090;BME280;3073;42.660;23.316;2023-06-10T03:08:05;94101.78;;;25.51;100.00
6090;BME280;3073;42.660;23.316;2023-06-10T03:10:32;94107.22;;;25.46;100.00
6090;BME280;3073;42.660;23.316;2023-06-10T03:12:59;94113.13;;;25.28;100.00
6090;BME280;3073;42.660;23.316;2023-06-10T03:15:26;94118.69;;;25.26;100.00
6090;BME280;3073;42.660;23.316;2023-06-10T03:17:54;94114.41;;;25.18;100.00
6090;BME280;3073;42.660;23.316;2023-06-10T03:20:22;94123.22;;;25.14;100.00
6090;BME280;3073;42.660;23.316;2023-06-10T03:22:53;94125.88;;;24.58;100.00
6090;BME280;3073;42.660;23.316;2023-06-10T03:25:20;94133.22;;;23.76;100.00
6090;BME280;3073;42.660;23.316;2023-06-10T03:27:48;94128.91;;;24.32;100.00
6090;BME280;3073;42.660;23.316;2023-06-10T03:30:15;94139.03;;;24.62;100.00
6090;BME280;3073;42.660;23.316;2023-06-10T03:32:42;94139.63;;;24.71;100.00
6090;BME280;3073;42.660;23.316;2023-06-10T03:35:09;94145.91;;;24.82;100.00
6090;BME280;3073;42.660;23.316;2023-06-10T03:37:37;94147.75;;;24.81;100.00
6090;BME280;3073;42.660;23.316;2023-06-10T03:40:05;94144.59;;;24.76;100.00
6090;BME280;3073;42.660;23.316;2023-06-10T03:42:32;94150.00;;;24.03;100.00
6090;BME280;3073;42.660;23.316;2023-06-10T03:44:59;94151.91;;;23.78;100.00
6090;BME280;3073;42.660;23.316;2023-06-10T03:47:26;94144.72;;;23.87;100.00
6090;BME280;3073;42.660;23.316;2023-06-10T03:49:52;94141.16;;;24.44;100.00
6090;BME280;3073;42.660;23.316;2023-06-10T03:52:19;94143.59;;;24.65;100.00
6090;BME280;3073;42.660;23.316;2023-06-10T03:54:47;94137.22;;;23.86;100.00
6090;BME280;3073;42.660;23.316;2023-06-10T03:57:15;94138.75;;;23.87;100.00
6090;BME280;3073;42.660;23.316;2023-06-10T03:59:41;94137.09;;;23.82;100.00
6090;BME280;3073;42.660;23.316;2023-06-10T04:02:08;94138.88;;;23.78;100.00
6090;BME280;3073;42.660;23.316;2023-06-10T04:04:36;94135.81;;;23.88;100.00
6090;BME280;3073;42.660;23.316;2023-06-10T04:07:03;94130.25;;;24.14;100.00
6090;BME280;3073;42.660;23.316;2023-06-10T04:09:30;94142.41;;;24.22;100.00
6090;BME280;3073;42.660;23.316;2023-06-10T04:11:59;94141.47;;;24.42;100.00
6090;BME280;3073;42.660;23.316;2023-06-10T04:14:25;94142.84;;;24.52;100.00
6090;BME280;3073;42.660;23.316;2023-06-10T04:16:54;94143.00;;;24.71;100.00
6090;BME280;3073;42.660;23.316;2023-06-10T04:19:23;94145.81;;;24.78;100.00
6090;BME280;3073;42.660;23.316;2023-06-10T04:21:51;94153.59;;;24.90;100.00
6090;BME280;3073;42.660;23.316;2023-06-10T04:24:17;94149.34;;;24.98;100.00
6090;BME280;3073;42.660;23.316;2023-06-10T04:26:44;94152.03;;;25.01;100.00
6090;BME280;3073;42.660;23.316;2023-06-10T04:29:13;94153.91;;;25.17;100.00
6090;BME280;3073;42.660;23.316;2023-06-10T04:31:40;94152.34;;;25.00;100.00
6090;BME280;3073;42.660;23.316;2023-06-10T04:34:06;94153.22;;;25.04;100.00
6090;BME280;3073;42.660;23.316;2023-06-10T04:36:34;94143.63;;;24.80;100.00
6090;BME280;3073;42.660;23.316;2023-06-10T04:39:01;94146.38;;;24.72;100.00
6090;BME280;3073;42.660;23.316;2023-06-10T04:41:28;94150.53;;;25.16;100.00
6090;BME280;3073;42.660;23.316;2023-06-10T04:43:55;94150.19;;;24.74;100.00
6090;BME280;3073;42.660;23.316;2023-06-10T04:46:23;94146.00;;;24.85;100.00
6090;BME280;3073;42.660;23.316;2023-06-10T04:48:50;94143.63;;;25.39;100.00
6090;BME280;3073;42.660;23.316;2023-06-10T04:51:18;94145.59;;;25.58;100.00
6090;BME280;3073;42.660;23.316;2023-06-10T04:53:45;94141.53;;;25.76;100.00
6090;BME280;3073;42.660;23.316;2023-06-10T04:56:12;94148.53;;;25.72;100.00
6090;BME280;3073;42.660;23.316;2023-06-10T04:58:40;94145.16;;;25.87;100.00
6090;BME280;3073;42.660;23.316;2023-06-10T05:01:06;94142.38;;;25.80;100.00
6090;BME280;3073;42.660;23.316;2023-06-10T05:03:35;94147.47;;;26.08;100.00
6090;BME280;3073;42.660;23.316;2023-06-10T05:06:01;94142.72;;;26.13;100.00
6090;BME280;3073;42.660;23.316;2023-06-10T05:08:28;94147.03;;;26.06;100.00
6090;BME280;3073;42.660;23.316;2023-06-10T05:10:55;94143.59;;;26.02;100.00
6090;BME280;3073;42.660;23.316;2023-06-10T05:13:22;94147.06;;;26.41;100.00
6090;BME280;3073;42.660;23.316;2023-06-10T05:15:48;94139.66;;;26.27;100.00
6090;BME280;3073;42.660;23.316;2023-06-10T05:18:15;94143.13;;;26.31;100.00
6090;BME280;3073;42.660;23.316;2023-06-10T05:20:44;94147.22;;;26.32;100.00
6090;BME280;3073;42.660;23.316;2023-06-10T05:23:10;94139.53;;;26.39;100.00
6090;BME280;3073;42.660;23.316;2023-06-10T05:25:37;94139.09;;;26.02;100.00
6090;BME280;3073;42.660;23.316;2023-06-10T05:28:04;94141.16;;;25.93;100.00
6090;BME280;3073;42.660;23.316;2023-06-10T05:30:35;94148.00;;;26.33;100.00
6090;BME280;3073;42.660;23.316;2023-06-10T05:33:03;94142.75;;;25.98;100.00
6090;BME280;3073;42.660;23.316;2023-06-10T05:35:31;94144.31;;;25.83;100.00
6090;BME280;3073;42.660;23.316;2023-06-10T05:37:59;94148.31;;;25.02;100.00
6090;BME280;3073;42.660;23.316;2023-06-10T05:40:26;94144.88;;;25.14;100.00
6090;BME280;3073;42.660;23.316;2023-06-10T05:42:53;94150.09;;;25.45;100.00
6090;BME280;3073;42.660;23.316;2023-06-10T05:45:20;94140.94;;;25.83;100.00
6090;BME280;3073;42.660;23.316;2023-06-10T05:47:47;94150.09;;;25.92;100.00
6090;BME280;3073;42.660;23.316;2023-06-10T05:50:13;94149.88;;;26.51;100.00
6090;BME280;3073;42.660;23.316;2023-06-10T05:52:41;94154.53;;;26.23;100.00
6090;BME280;3073;42.660;23.316;2023-06-10T05:55:10;94156.81;;;24.72;100.00
6090;BME280;3073;42.660;23.316;2023-06-10T05:57:37;94151.56;;;25.12;100.00
6090;BME280;3073;42.660;23.316;2023-06-10T06:00:07;94156.81;;;25.58;100.00
6090;BME280;3073;42.660;23.316;2023-06-10T06:02:34;94165.38;;;25.90;100.00
6090;BME280;3073;42.660;23.316;2023-06-10T06:05:01;94167.19;;;26.21;100.00
6090;BME280;3073;42.660;23.316;2023-06-10T06:07:28;94166.38;;;26.17;100.00
6090;BME280;3073;42.660;23.316;2023-06-10T06:09:55;94160.41;;;26.55;100.00
6090;BME280;3073;42.660;23.316;2023-06-10T06:12:25;94164.69;;;25.46;100.00
6090;BME280;3073;42.660;23.316;2023-06-10T06:14:52;94155.69;;;25.44;100.00
6090;BME280;3073;42.660;23.316;2023-06-10T06:17:19;94156.50;;;25.32;100.00
6090;BME280;3073;42.660;23.316;2023-06-10T06:19:46;94157.44;;;25.87;100.00
6090;BME280;3073;42.660;23.316;2023-06-10T06:22:13;94154.78;;;26.02;100.00
6090;BME280;3073;42.660;23.316;2023-06-10T06:24:40;94148.84;;;25.39;100.00
6090;BME280;3073;42.660;23.316;2023-06-10T06:27:07;94153.66;;;25.84;100.00
6090;BME280;3073;42.660;23.316;2023-06-10T06:29:35;94162.72;;;26.22;100.00
6090;BME280;3073;42.660;23.316;2023-06-10T06:32:02;94163.13;;;25.73;100.00
6090;BME280;3073;42.660;23.316;2023-06-10T06:34:29;94162.69;;;25.87;100.00
6090;BME280;3073;42.660;23.316;2023-06-10T06:36:57;94164.16;;;26.03;100.00
6090;BME280;3073;42.660;23.316;2023-06-10T06:39:23;94155.59;;;25.87;100.00
6090;BME280;3073;42.660;23.316;2023-06-10T06:41:51;94160.50;;;26.58;98.95
6090;BME280;3073;42.660;23.316;2023-06-10T06:44:18;94155.66;;;26.80;97.26
6090;BME280;3073;42.660;23.316;2023-06-10T06:46:46;94155.06;;;27.28;93.38
6090;BME280;3073;42.660;23.316;2023-06-10T06:49:13;94151.94;;;27.23;93.77
6090;BME280;3073;42.660;23.316;2023-06-10T06:51:40;94154.16;;;27.21;93.32
6090;BME280;3073;42.660;23.316;2023-06-10T06:54:16;94150.28;;;28.05;89.64
6090;BME280;3073;42.660;23.316;2023-06-10T06:56:43;94151.47;;;28.08;86.12
6090;BME280;3073;42.660;23.316;2023-06-10T06:59:09;94148.78;;;28.64;80.84
6090;BME280;3073;42.660;23.316;2023-06-10T07:01:39;94153.09;;;28.79;81.32
6090;BME280;3073;42.660;23.316;2023-06-10T07:04:08;94153.66;;;29.32;78.90
6090;BME280;3073;42.660;23.316;2023-06-10T07:06:35;94146.50;;;28.62;79.24
6090;BME280;3073;42.660;23.316;2023-06-10T07:09:03;94149.50;;;28.31;80.29
6090;BME280;3073;42.660;23.316;2023-06-10T07:11:31;94142.50;;;28.42;78.56
6090;BME280;3073;42.660;23.316;2023-06-10T07:13:58;94147.94;;;27.74;79.44
6090;BME280;3073;42.660;23.316;2023-06-10T07:16:28;94143.88;;;27.08;80.81
6090;BME280;3073;42.660;23.316;2023-06-10T07:18:55;94143.72;;;28.78;76.84
6090;BME280;3073;42.660;23.316;2023-06-10T07:21:30;94136.44;;;27.82;78.17
6090;BME280;3073;42.660;23.316;2023-06-10T07:23:58;94137.91;;;28.95;76.23
6090;BME280;3073;42.660;23.316;2023-06-10T07:26:25;94131.50;;;28.96;73.97
6090;BME280;3073;42.660;23.316;2023-06-10T07:28:52;94135.25;;;30.41;69.79
6090;BME280;3073;42.660;23.316;2023-06-10T07:31:19;94126.25;;;28.63;69.22
6090;BME280;3073;42.660;23.316;2023-06-10T07:33:46;94135.28;;;28.65;71.95
6090;BME280;3073;42.660;23.316;2023-06-10T07:36:19;94135.22;;;28.92;69.31
6090;BME280;3073;42.660;23.316;2023-06-10T07:38:49;94132.94;;;29.27;67.95
6090;BME280;3073;42.660;23.316;2023-06-10T07:41:16;94141.97;;;30.32;64.61
6090;BME280;3073;42.660;23.316;2023-06-10T07:43:46;94134.53;;;30.48;63.45
6090;BME280;3073;42.660;23.316;2023-06-10T07:46:12;94145.16;;;30.00;60.23
6090;BME280;3073;42.660;23.316;2023-06-10T07:48:39;94138.84;;;30.08;61.65
6090;BME280;3073;42.660;23.316;2023-06-10T07:51:06;94136.25;;;29.61;62.97
6090;BME280;3073;42.660;23.316;2023-06-10T07:53:36;94140.03;;;29.67;64.37
6090;BME280;3073;42.660;23.316;2023-06-10T07:56:04;94141.59;;;31.55;60.50
6090;BME280;3073;42.660;23.316;2023-06-10T07:58:31;94142.28;;;32.01;56.64
6090;BME280;3073;42.660;23.316;2023-06-10T08:00:58;94143.72;;;33.28;53.85
6090;BME280;3073;42.660;23.316;2023-06-10T08:03:25;94142.81;;;33.93;50.66
6090;BME280;3073;42.660;23.316;2023-06-10T08:05:51;94134.50;;;34.96;47.19
6090;BME280;3073;42.660;23.316;2023-06-10T08:08:21;94140.72;;;35.40;45.31
6090;BME280;3073;42.660;23.316;2023-06-10T08:10:48;94144.03;;;33.89;46.74
6090;BME280;3073;42.660;23.316;2023-06-10T08:13:16;94137.16;;;35.50;44.59
6090;BME280;3073;42.660;23.316;2023-06-10T08:15:43;94141.47;;;36.33;40.03
6090;BME280;3073;42.660;23.316;2023-06-10T08:18:10;94135.56;;;35.56;39.04
6090;BME280;3073;42.660;23.316;2023-06-10T08:20:37;94131.75;;;36.66;39.57
6090;BME280;3073;42.660;23.316;2023-06-10T08:23:04;94132.19;;;36.22;38.95
6090;BME280;3073;42.660;23.316;2023-06-10T08:25:30;94133.00;;;37.49;36.95
6090;BME280;3073;42.660;23.316;2023-06-10T08:28:02;94117.19;;;35.19;39.29
6090;BME280;3073;42.660;23.316;2023-06-10T08:30:31;94105.34;;;35.23;40.46
6090;BME280;3073;42.660;23.316;2023-06-10T08:32:59;94120.88;;;32.86;42.89
6090;BME280;3073;42.660;23.316;2023-06-10T08:35:26;94114.81;;;33.96;42.13
6090;BME280;3073;42.660;23.316;2023-06-10T08:37:52;94115.19;;;34.35;41.32
6090;BME280;3073;42.660;23.316;2023-06-10T08:40:22;94110.00;;;34.25;39.81
6090;BME280;3073;42.660;23.316;2023-06-10T08:42:56;94106.47;;;35.49;38.90
6090;BME280;3073;42.660;23.316;2023-06-10T08:45:30;94111.69;;;36.42;36.92
6090;BME280;3073;42.660;23.316;2023-06-10T08:47:58;94103.88;;;35.45;37.73
6090;BME280;3073;42.660;23.316;2023-06-10T08:50:28;94103.06;;;33.56;37.31
6090;BME280;3073;42.660;23.316;2023-06-10T08:52:58;94103.25;;;32.69;40.56
6090;BME280;3073;42.660;23.316;2023-06-10T08:55:29;94104.81;;;34.78;39.17
6090;BME280;3073;42.660;23.316;2023-06-10T08:57:57;94091.72;;;35.91;36.59
6090;BME280;3073;42.660;23.316;2023-06-10T09:00:25;94086.88;;;36.09;35.95
6090;BME280;3073;42.660;23.316;2023-06-10T09:02:54;94091.97;;;35.53;37.03
6090;BME280;3073;42.660;23.316;2023-06-10T09:05:22;94082.22;;;35.24;36.35
6090;BME280;3073;42.660;23.316;2023-06-10T09:07:49;94082.47;;;36.78;35.45
6090;BME280;3073;42.660;23.316;2023-06-10T09:10:18;94086.72;;;35.73;36.77
6090;BME280;3073;42.660;23.316;2023-06-10T09:12:45;94084.78;;;34.43;37.61
6090;BME280;3073;42.660;23.316;2023-06-10T09:15:11;94077.25;;;35.95;36.07
6090;BME280;3073;42.660;23.316;2023-06-10T09:17:40;94086.59;;;36.43;35.64
6090;BME280;3073;42.660;23.316;2023-06-10T09:20:09;94084.13;;;35.93;35.62
6090;BME280;3073;42.660;23.316;2023-06-10T09:22:36;94085.44;;;36.44;35.92
6090;BME280;3073;42.660;23.316;2023-06-10T09:25:03;94076.28;;;36.45;35.18
6090;BME280;3073;42.660;23.316;2023-06-10T09:27:31;94083.41;;;36.32;34.87
6090;BME280;3073;42.660;23.316;2023-06-10T09:29:59;94079.09;;;36.38;33.51
6090;BME280;3073;42.660;23.316;2023-06-10T09:32:26;94078.34;;;36.37;33.60
6090;BME280;3073;42.660;23.316;2023-06-10T09:34:53;94075.16;;;36.46;34.45
6090;BME280;3073;42.660;23.316;2023-06-10T09:37:22;94076.56;;;35.45;35.60
6090;BME280;3073;42.660;23.316;2023-06-10T09:40:02;94068.28;;;36.09;35.04
6090;BME280;3073;42.660;23.316;2023-06-10T09:42:32;94067.91;;;36.27;34.52
6090;BME280;3073;42.660;23.316;2023-06-10T09:44:59;94068.50;;;36.90;33.95
6090;BME280;3073;42.660;23.316;2023-06-10T09:47:26;94062.28;;;36.96;34.72
6090;BME280;3073;42.660;23.316;2023-06-10T09:49:53;94058.91;;;37.44;35.01
6090;BME280;3073;42.660;23.316;2023-06-10T09:52:25;94064.41;;;37.37;33.54
6090;BME280;3073;42.660;23.316;2023-06-10T09:54:54;94053.69;;;34.47;37.20
6090;BME280;3073;42.660;23.316;2023-06-10T09:57:21;94052.94;;;34.47;36.07
6090;BME280;3073;42.660;23.316;2023-06-10T09:59:52;94047.22;;;33.84;37.30
6090;BME280;3073;42.660;23.316;2023-06-10T10:02:19;94053.28;;;35.33;36.01
6090;BME280;3073;42.660;23.316;2023-06-10T10:04:46;94053.25;;;35.56;35.80
6090;BME280;3073;42.660;23.316;2023-06-10T10:07:14;94053.34;;;37.06;34.55
6090;BME280;3073;42.660;23.316;2023-06-10T10:09:42;94049.03;;;38.19;33.63
6090;BME280;3073;42.660;23.316;2023-06-10T10:12:10;94044.31;;;39.61;30.67
6090;BME280;3073;42.660;23.316;2023-06-10T10:14:46;94044.84;;;36.95;33.10
6090;BME280;3073;42.660;23.316;2023-06-10T10:17:15;94023.47;;;34.98;34.89
6090;BME280;3073;42.660;23.316;2023-06-10T10:19:46;94026.56;;;36.26;34.03
6090;BME280;3073;42.660;23.316;2023-06-10T10:22:19;94028.81;;;36.63;33.58
6090;BME280;3073;42.660;23.316;2023-06-10T10:24:49;94026.47;;;35.24;35.32
6090;BME280;3073;42.660;23.316;2023-06-10T10:27:18;94035.13;;;35.74;35.75
6090;BME280;3073;42.660;23.316;2023-06-10T10:29:48;94031.53;;;36.79;34.10
6090;BME280;3073;42.660;23.316;2023-06-10T10:32:19;94032.97;;;37.77;33.04
6090;BME280;3073;42.660;23.316;2023-06-10T10:34:51;94022.97;;;38.10;32.23
6090;BME280;3073;42.660;23.316;2023-06-10T10:37:21;94028.13;;;37.88;32.50
6090;BME280;3073;42.660;23.316;2023-06-10T10:39:50;94023.22;;;38.82;31.87
6090;BME280;3073;42.660;23.316;2023-06-10T10:42:18;94018.06;;;39.47;31.43
6090;BME280;3073;42.660;23.316;2023-06-10T10:44:46;94019.75;;;39.67;29.97
6090;BME280;3073;42.660;23.316;2023-06-10T10:47:13;94014.13;;;38.92;30.71
6090;BME280;3073;42.660;23.316;2023-06-10T10:49:43;94016.09;;;37.23;31.95
6090;BME280;3073;42.660;23.316;2023-06-10T10:52:12;94010.09;;;37.80;31.94
6090;BME280;3073;42.660;23.316;2023-06-10T10:54:49;94013.78;;;38.40;30.63
6090;BME280;3073;42.660;23.316;2023-06-10T10:57:19;94005.56;;;38.97;30.08
6090;BME280;3073;42.660;23.316;2023-06-10T10:59:56;94005.31;;;37.42;30.64
6090;BME280;3073;42.660;23.316;2023-06-10T11:02:36;94005.25;;;37.13;31.35
6090;BME280;3073;42.660;23.316;2023-06-10T11:05:08;93997.22;;;36.49;32.16
6090;BME280;3073;42.660;23.316;2023-06-10T11:07:37;93996.75;;;36.34;32.85
6090;BME280;3073;42.660;23.316;2023-06-10T11:10:07;93989.25;;;34.24;34.91
6090;BME280;3073;42.660;23.316;2023-06-10T11:12:52;93981.94;;;35.35;33.77
6090;BME280;3073;42.660;23.316;2023-06-10T11:15:20;93985.91;;;33.52;35.97
6090;BME280;3073;42.660;23.316;2023-06-10T11:18:12;93980.94;;;34.25;35.21
6090;BME280;3073;42.660;23.316;2023-06-10T11:20:53;93981.53;;;35.59;35.58
6090;BME280;3073;42.660;23.316;2023-06-10T11:23:38;93985.97;;;35.66;34.52
6090;BME280;3073;42.660;23.316;2023-06-10T11:26:17;93980.56;;;37.13;33.97
6090;BME280;3073;42.660;23.316;2023-06-10T11:29:04;93974.97;;;37.24;33.30
6090;BME280;3073;42.660;23.316;2023-06-10T11:31:33;93966.44;;;37.61;32.84
6090;BME280;3073;42.660;23.316;2023-06-10T11:34:05;93959.34;;;38.12;31.75
6090;BME280;3073;42.660;23.316;2023-06-10T11:36:33;93963.91;;;39.47;30.68
6090;BME280;3073;42.660;23.316;2023-06-10T11:39:03;93964.34;;;39.67;30.54
6090;BME280;3073;42.660;23.316;2023-06-10T11:41:32;93966.91;;;40.85;29.60
6090;BME280;3073;42.660;23.316;2023-06-10T11:44:02;93961.91;;;39.60;29.74
6090;BME280;3073;42.660;23.316;2023-06-10T11:46:30;93954.78;;;36.78;31.75
6090;BME280;3073;42.660;23.316;2023-06-10T11:48:59;93962.13;;;37.06;31.27
6090;BME280;3073;42.660;23.316;2023-06-10T11:51:28;93949.69;;;37.60;31.78
6090;BME280;3073;42.660;23.316;2023-06-10T11:53:55;93959.47;;;37.06;32.59
6090;BME280;3073;42.660;23.316;2023-06-10T11:56:23;93948.28;;;37.27;32.95
6090;BME280;3073;42.660;23.316;2023-06-10T11:58:55;93953.38;;;36.57;33.39
6090;BME280;3073;42.660;23.316;2023-06-10T12:01:23;93951.47;;;37.06;33.42
6090;BME280;3073;42.660;23.316;2023-06-10T12:03:59;93949.72;;;37.16;32.83
6090;BME280;3073;42.660;23.316;2023-06-10T12:06:26;93946.16;;;37.51;33.28
6090;BME280;3073;42.660;23.316;2023-06-10T12:08:56;93947.09;;;35.76;34.26
6090;BME280;3073;42.660;23.316;2023-06-10T12:11:23;93952.13;;;36.78;33.76
6090;BME280;3073;42.660;23.316;2023-06-10T12:13:50;93953.63;;;36.79;34.57
6090;BME280;3073;42.660;23.316;2023-06-10T12:16:17;93950.28;;;36.91;33.52
6090;BME280;3073;42.660;23.316;2023-06-10T12:18:45;93945.19;;;36.96;32.32
6090;BME280;3073;42.660;23.316;2023-06-10T12:21:18;93950.16;;;37.43;32.74
6090;BME280;3073;42.660;23.316;2023-06-10T12:24:05;93947.47;;;37.59;32.76
6090;BME280;3073;42.660;23.316;2023-06-10T12:26:40;93932.97;;;38.01;31.83
6090;BME280;3073;42.660;23.316;2023-06-10T12:29:21;93942.19;;;37.27;31.58
6090;BME280;3073;42.660;23.316;2023-06-10T12:32:07;93934.34;;;37.52;32.45
6090;BME280;3073;42.660;23.316;2023-06-10T12:34:36;93937.53;;;36.70;31.88
6090;BME280;3073;42.660;23.316;2023-06-10T12:37:06;93933.94;;;37.08;31.02
6090;BME280;3073;42.660;23.316;2023-06-10T12:39:39;93930.28;;;36.86;31.03
6090;BME280;3073;42.660;23.316;2023-06-10T12:42:08;93922.25;;;36.22;31.25
6090;BME280;3073;42.660;23.316;2023-06-10T12:44:39;93930.44;;;36.79;30.28
6090;BME280;3073;42.660;23.316;2023-06-10T12:47:09;93925.56;;;36.09;30.61
6090;BME280;3073;42.660;23.316;2023-06-10T12:49:38;93914.22;;;36.57;29.83
6090;BME280;3073;42.660;23.316;2023-06-10T12:52:07;93917.44;;;35.57;30.35
6090;BME280;3073;42.660;23.316;2023-06-10T12:54:34;93931.31;;;36.04;30.59
6090;BME280;3073;42.660;23.316;2023-06-10T12:57:01;93926.81;;;36.53;31.35
6090;BME280;3073;42.660;23.316;2023-06-10T12:59:28;93927.78;;;36.79;31.12
6090;BME280;3073;42.660;23.316;2023-06-10T13:01:57;93928.50;;;36.47;30.45
6090;BME280;3073;42.660;23.316;2023-06-10T13:04:24;93925.16;;;35.72;30.53
6090;BME280;3073;42.660;23.316;2023-06-10T13:06:51;93924.53;;;35.84;30.68
6090;BME280;3073;42.660;23.316;2023-06-10T13:09:19;93930.88;;;35.70;31.70
6090;BME280;3073;42.660;23.316;2023-06-10T13:11:46;93921.78;;;34.58;33.08